Time;durP1;ratioP1;P1;durP2;ratioP2;P2;SDS_P1;SDS_P2;PMS_P1;PMS_P2;Temp;Humidity;BMP_temperature;BMP_pressure;BME280_temperature;BME280_humidity;BME280_pressure;Samples;Min_cycle;Max_cycle;Signal;HPM_P1;HPM_P2
2022/06/26 00:00:05;;;;;;;5.07;3.92;;;20.80;95.40;;;;;;4199012;28;20067;-68
2022/06/26 00:02:06;;;;;;;8.07;3.42;;;20.50;96.00;;;;;;4204281;28;20036;-63
2022/06/26 00:04:08;;;;;;;4.10;2.95;;;20.40;96.60;;;;;;4199756;28;20554;-64
2022/06/26 00:06:09;;;;;;;6.25;2.88;;;20.30;97.00;;;;;;4193776;28;20465;-63
2022/06/26 00:08:10;;;;;;;6.45;2.78;;;20.20;97.60;;;;;;4194455;28;20074;-62
2022/06/26 00:10:11;;;;;;;4.93;2.85;;;20.10;97.70;;;;;;4193412;28;20538;-66
2022/06/26 00:12:12;;;;;;;8.50;2.63;;;20.10;97.90;;;;;;4192940;28;20094;-67
2022/06/26 00:14:13;;;;;;;10.30;3.35;;;20.20;97.90;;;;;;4192426;28;20074;-62
2022/06/26 00:16:15;;;;;;;5.40;2.92;;;20.20;98.00;;;;;;4195799;28;20057;-62
2022/06/26 00:18:17;;;;;;;5.65;2.55;;;20.20;98.50;;;;;;4193496;28;20025;-61
2022/06/26 00:20:21;;;;;;;7.03;3.13;;;20.10;98.40;;;;;;4205075;28;20133;-66
2022/06/26 00:22:22;;;;;;;6.85;2.78;;;20.00;98.70;;;;;;4209913;28;20066;-65
2022/06/26 00:24:23;;;;;;;8.52;3.03;;;20.00;99.10;;;;;;4211094;28;20732;-66
2022/06/26 00:26:24;;;;;;;5.90;3.10;;;19.90;99.40;;;;;;4209736;28;20037;-67
2022/06/26 00:28:27;;;;;;;7.45;3.00;;;19.90;99.60;;;;;;4211217;28;20426;-66
2022/06/26 00:30:28;;;;;;;4.45;3.05;;;19.90;99.90;;;;;;4211765;28;20020;-67
2022/06/26 00:32:29;;;;;;;7.13;3.20;;;19.90;99.70;;;;;;4213961;28;20040;-66
2022/06/26 00:34:31;;;;;;;6.53;3.30;;;19.80;99.90;;;;;;4208859;28;20021;-66
2022/06/26 00:36:32;;;;;;;7.95;3.50;;;19.70;99.90;;;;;;4196664;28;20472;-67
2022/06/26 00:38:33;;;;;;;5.47;3.00;;;19.60;99.90;;;;;;4213327;28;20024;-65
2022/06/26 00:40:34;;;;;;;6.65;3.22;;;19.60;99.90;;;;;;4196219;28;20577;-66
2022/06/26 00:42:36;;;;;;;6.97;3.15;;;19.60;99.90;;;;;;4196943;28;20090;-63
2022/06/26 00:44:37;;;;;;;3.53;2.70;;;19.50;99.90;;;;;;4196367;28;20029;-68
2022/06/26 00:46:38;;;;;;;7.90;3.60;;;19.50;99.90;;;;;;4198477;28;20077;-65
2022/06/26 00:48:39;;;;;;;6.57;3.17;;;19.50;99.90;;;;;;4201442;28;20032;-62
2022/06/26 00:50:40;;;;;;;4.85;3.40;;;19.50;99.90;;;;;;4213921;28;20105;-66
2022/06/26 00:52:43;;;;;;;6.65;3.35;;;19.50;99.90;;;;;;4212871;28;20031;-67
2022/06/26 00:54:44;;;;;;;3.58;3.13;;;19.60;99.90;;;;;;4213906;28;20039;-61
2022/06/26 00:56:46;;;;;;;7.63;3.92;;;19.60;99.90;;;;;;4201153;28;20488;-61
2022/06/26 00:58:47;;;;;;;6.93;3.70;;;19.60;99.90;;;;;;4197333;28;20048;-62
2022/06/26 01:00:48;;;;;;;6.47;3.22;;;19.60;99.90;;;;;;4196241;28;20028;-68
2022/06/26 01:02:49;;;;;;;5.88;3.22;;;19.50;99.90;;;;;;4196654;28;20097;-65
2022/06/26 01:04:51;;;;;;;8.77;3.78;;;19.60;99.90;;;;;;4196196;28;20038;-61
2022/06/26 01:06:52;;;;;;;7.28;3.83;;;19.60;99.90;;;;;;4203063;28;20085;-65
2022/06/26 01:08:54;;;;;;;4.13;3.42;;;19.60;99.90;;;;;;4196804;28;20076;-64
2022/06/26 01:10:55;;;;;;;4.80;3.25;;;19.60;99.90;;;;;;4195899;28;20106;-67
2022/06/26 01:12:58;;;;;;;6.60;3.80;;;19.60;99.90;;;;;;4196925;28;20074;-65
2022/06/26 01:15:00;;;;;;;4.78;3.63;;;19.70;99.90;;;;;;4197923;28;20496;-65
2022/06/26 01:17:01;;;;;;;4.72;3.53;;;19.70;99.90;;;;;;4196761;28;20033;-65
2022/06/26 01:19:05;;;;;;;6.50;3.83;;;19.70;99.90;;;;;;4195715;28;20090;-65
2022/06/26 01:21:07;;;;;;;8.38;3.78;;;19.70;99.90;;;;;;4203347;28;20439;-66
2022/06/26 01:23:08;;;;;;;9.32;4.80;;;19.70;99.90;;;;;;4212369;28;20047;-66
2022/06/26 01:25:10;;;;;;;6.50;4.00;;;19.60;99.90;;;;;;4213463;28;20036;-68
2022/06/26 01:27:11;;;;;;;9.00;4.40;;;19.50;99.90;;;;;;4212114;28;20109;-66
2022/06/26 01:29:12;;;;;;;6.20;3.60;;;19.50;99.90;;;;;;4213438;28;20028;-65
2022/06/26 01:31:14;;;;;;;8.13;3.92;;;19.50;99.90;;;;;;4206634;28;20036;-62
2022/06/26 01:33:15;;;;;;;6.13;3.78;;;19.50;99.90;;;;;;4196855;28;20052;-64
2022/06/26 01:35:16;;;;;;;7.90;5.30;;;19.50;99.90;;;;;;4198604;28;20036;-67
2022/06/26 01:37:17;;;;;;;6.60;3.90;;;19.40;99.90;;;;;;4196410;28;20079;-65
2022/06/26 01:39:20;;;;;;;5.32;3.70;;;19.40;99.90;;;;;;4200907;28;20016;-66
2022/06/26 01:41:21;;;;;;;4.82;3.78;;;19.40;99.90;;;;;;4198736;28;20118;-62
2022/06/26 01:43:25;;;;;;;6.55;3.95;;;19.40;99.90;;;;;;4194695;28;20048;-62
2022/06/26 01:45:26;;;;;;;6.13;3.88;;;19.40;99.90;;;;;;4194182;28;20033;-66
2022/06/26 01:47:27;;;;;;;8.45;3.72;;;19.40;99.90;;;;;;4199602;28;20394;-67
2022/06/26 01:49:29;;;;;;;6.28;3.65;;;19.40;99.90;;;;;;4193609;28;20493;-65
2022/06/26 01:51:30;;;;;;;6.20;3.95;;;19.40;99.90;;;;;;4199593;28;20036;-65
2022/06/26 01:53:32;;;;;;;7.45;3.60;;;19.40;99.90;;;;;;4195319;28;20044;-62
2022/06/26 01:55:33;;;;;;;8.18;3.90;;;19.30;99.90;;;;;;4196929;28;20093;-68
2022/06/26 01:57:34;;;;;;;6.10;3.63;;;19.20;99.90;;;;;;4196619;28;20044;-63
2022/06/26 01:59:35;;;;;;;8.02;3.60;;;19.10;99.90;;;;;;4196144;28;20040;-63
2022/06/26 02:01:37;;;;;;;7.65;3.33;;;19.00;99.90;;;;;;4194954;28;20439;-65
2022/06/26 02:03:39;;;;;;;4.75;3.13;;;19.00;99.90;;;;;;4196197;28;20101;-68
2022/06/26 02:05:40;;;;;;;6.45;3.20;;;18.90;99.90;;;;;;4196342;28;20098;-66
2022/06/26 02:07:41;;;;;;;4.45;3.33;;;18.90;99.90;;;;;;4212536;28;20058;-68
2022/06/26 02:14:22;;;;;;;4.63;3.53;;;19.00;99.90;;;;;;4195334;28;20032;-66
2022/06/26 02:16:26;;;;;;;5.22;3.90;;;19.00;99.90;;;;;;4196024;28;20506;-69
2022/06/26 02:18:28;;;;;;;9.15;3.47;;;19.00;99.90;;;;;;4195083;28;20822;-64
2022/06/26 02:20:29;;;;;;;6.95;3.67;;;18.90;99.90;;;;;;4195594;28;20554;-65
2022/06/26 02:22:30;;;;;;;10.35;3.60;;;18.90;99.90;;;;;;4211744;28;20020;-65
2022/06/26 02:24:31;;;;;;;4.65;3.47;;;18.90;99.90;;;;;;4211779;28;20040;-67
2022/06/26 02:26:33;;;;;;;5.53;3.30;;;18.80;99.90;;;;;;4211836;28;20020;-68
2022/06/26 02:28:35;;;;;;;8.13;3.70;;;18.80;99.90;;;;;;4202052;28;20045;-67
2022/06/26 02:30:37;;;;;;;11.48;3.47;;;18.80;99.90;;;;;;4195797;28;20484;-66
2022/06/26 02:32:38;;;;;;;9.05;4.55;;;18.80;99.90;;;;;;4194880;28;20101;-63
2022/06/26 02:34:39;;;;;;;7.20;3.70;;;18.90;99.90;;;;;;4195578;28;20032;-63
2022/06/26 02:36:40;;;;;;;6.13;3.53;;;18.90;99.90;;;;;;4195422;28;20041;-66
2022/06/26 02:38:42;;;;;;;9.35;3.63;;;19.00;99.90;;;;;;4195408;28;20089;-63
2022/06/26 02:40:46;;;;;;;3.85;3.50;;;19.00;99.90;;;;;;4194335;28;20037;-65
2022/06/26 02:42:48;;;;;;;6.80;4.10;;;19.00;99.90;;;;;;4196493;28;20074;-65
2022/06/26 02:44:49;;;;;;;14.30;3.60;;;19.00;99.90;;;;;;4194375;28;20028;-65
2022/06/26 02:46:50;;;;;;;7.13;4.18;;;19.00;99.90;;;;;;4196013;28;20098;-66
2022/06/26 02:48:51;;;;;;;10.15;4.43;;;19.10;99.90;;;;;;4195404;28;20017;-65
2022/06/26 02:50:53;;;;;;;5.55;3.33;;;19.10;99.90;;;;;;4194918;28;20090;-67
2022/06/26 02:52:54;;;;;;;6.72;4.25;;;19.10;99.90;;;;;;4194158;28;20036;-66
2022/06/26 02:54:55;;;;;;;5.55;3.83;;;19.00;99.90;;;;;;4194642;28;20036;-63
2022/06/26 02:56:57;;;;;;;9.05;3.95;;;19.10;99.90;;;;;;4194290;28;20041;-62
2022/06/26 02:58:58;;;;;;;5.40;3.53;;;19.00;99.90;;;;;;4194375;28;20048;-64
2022/06/26 03:00:59;;;;;;;5.05;3.95;;;19.00;99.90;;;;;;4196007;28;20032;-68
2022/06/26 03:03:02;;;;;;;7.30;4.68;;;19.10;99.90;;;;;;4194043;28;20036;-63
2022/06/26 03:05:03;;;;;;;9.88;4.35;;;19.00;99.90;;;;;;4195396;28;20090;-64
2022/06/26 03:07:04;;;;;;;5.32;3.78;;;19.00;99.90;;;;;;4193925;28;20024;-67
2022/06/26 03:09:05;;;;;;;9.07;4.45;;;19.00;99.90;;;;;;4195131;28;20013;-68
2022/06/26 03:11:07;;;;;;;5.22;3.30;;;19.00;99.90;;;;;;4194774;28;20415;-67
2022/06/26 03:13:08;;;;;;;6.65;3.60;;;19.00;99.90;;;;;;4195137;28;20078;-67
2022/06/26 03:15:09;;;;;;;9.63;4.10;;;19.10;99.90;;;;;;4194524;28;20451;-64
2022/06/26 03:17:10;;;;;;;9.32;3.95;;;19.10;99.90;;;;;;4195415;28;20439;-65
2022/06/26 03:19:11;;;;;;;6.35;4.15;;;19.00;99.90;;;;;;4194146;28;20090;-66
2022/06/26 03:21:13;;;;;;;8.30;4.30;;;18.80;99.90;;;;;;4195023;28;20435;-66
2022/06/26 03:23:14;;;;;;;5.82;4.30;;;18.70;99.90;;;;;;4194010;28;20082;-66
2022/06/26 03:25:15;;;;;;;5.55;4.35;;;18.70;99.90;;;;;;4207753;28;20048;-67
2022/06/26 03:27:16;;;;;;;6.78;4.53;;;18.70;99.90;;;;;;4210736;28;20461;-65
2022/06/26 03:29:17;;;;;;;5.53;4.28;;;18.60;99.90;;;;;;4210770;28;20074;-67
2022/06/26 03:31:19;;;;;;;7.90;4.40;;;18.50;99.90;;;;;;4211130;28;20439;-67
2022/06/26 03:33:20;;;;;;;6.25;3.95;;;18.50;99.90;;;;;;4203155;28;20059;-66
2022/06/26 03:35:21;;;;;;;9.20;4.43;;;18.50;99.90;;;;;;4195026;28;20443;-68
2022/06/26 03:37:22;;;;;;;7.63;3.88;;;18.50;99.90;;;;;;4193955;28;20489;-67
2022/06/26 03:39:23;;;;;;;8.02;4.07;;;18.50;99.90;;;;;;4195673;28;20029;-65
2022/06/26 03:41:24;;;;;;;9.93;4.45;;;18.60;99.90;;;;;;4193509;28;20427;-66
2022/06/26 03:43:26;;;;;;;6.05;3.53;;;18.60;99.90;;;;;;4195054;28;20048;-61
2022/06/26 03:45:27;;;;;;;7.25;3.72;;;18.50;99.90;;;;;;4193805;28;20017;-68
2022/06/26 03:47:28;;;;;;;8.10;3.97;;;18.50;99.90;;;;;;4194836;28;20055;-63
2022/06/26 03:49:29;;;;;;;9.13;4.22;;;18.50;99.90;;;;;;4194743;28;20044;-65
2022/06/26 03:51:30;;;;;;;8.20;4.43;;;18.50;99.90;;;;;;4194684;28;20086;-65
2022/06/26 03:53:32;;;;;;;5.03;4.32;;;18.50;99.90;;;;;;4194020;28;20045;-65
2022/06/26 03:55:34;;;;;;;9.10;4.60;;;18.50;99.90;;;;;;4194297;28;20025;-67
2022/06/26 03:57:35;;;;;;;9.77;4.28;;;18.60;99.90;;;;;;4193818;28;20802;-66
2022/06/26 03:59:37;;;;;;;9.43;4.90;;;18.60;99.90;;;;;;4194265;28;20062;-66
2022/06/26 04:01:38;;;;;;;8.20;4.53;;;18.60;99.90;;;;;;4207098;28;20578;-68
2022/06/26 04:03:39;;;;;;;6.35;4.45;;;18.60;99.90;;;;;;4208996;28;20032;-64
2022/06/26 04:05:40;;;;;;;7.78;3.95;;;18.60;99.90;;;;;;4212804;28;20032;-68
2022/06/26 04:07:41;;;;;;;30.33;4.68;;;18.60;99.90;;;;;;4213456;28;20032;-68
2022/06/26 04:09:42;;;;;;;9.98;3.88;;;18.50;99.90;;;;;;4214392;28;20091;-68
2022/06/26 04:11:43;;;;;;;5.72;3.70;;;18.50;99.90;;;;;;4213304;28;20377;-63
2022/06/26 04:13:45;;;;;;;3.85;3.15;;;18.40;99.90;;;;;;4214423;28;20089;-66
2022/06/26 04:15:46;;;;;;;4.18;3.20;;;18.40;99.90;;;;;;4201113;28;20036;-68
2022/06/26 04:17:47;;;;;;;10.27;3.75;;;18.40;99.90;;;;;;4197548;28;20044;-66
2022/06/26 04:19:49;;;;;;;5.97;3.60;;;18.40;99.90;;;;;;4196816;28;20110;-66
2022/06/26 04:21:50;;;;;;;5.10;3.40;;;18.40;99.90;;;;;;4200419;28;20513;-67
2022/06/26 04:23:51;;;;;;;5.63;3.60;;;18.40;99.90;;;;;;4213256;28;20081;-61
2022/06/26 04:25:52;;;;;;;6.15;3.72;;;18.40;99.90;;;;;;4213746;28;20097;-66
2022/06/26 04:27:54;;;;;;;7.38;3.80;;;18.50;99.90;;;;;;4213494;28;20036;-64
2022/06/26 04:29:55;;;;;;;7.70;4.07;;;18.60;99.90;;;;;;4207769;28;20036;-65
2022/06/26 04:31:56;;;;;;;5.70;3.90;;;18.70;99.90;;;;;;4197077;28;20426;-63
2022/06/26 04:33:57;;;;;;;6.13;3.70;;;18.70;99.90;;;;;;4196358;28;20086;-63
2022/06/26 04:35:58;;;;;;;8.20;3.63;;;18.90;99.90;;;;;;4197879;28;20097;-61
2022/06/26 04:38:00;;;;;;;7.72;4.00;;;19.10;99.90;;;;;;4212405;28;20082;-61
2022/06/26 04:40:01;;;;;;;7.93;3.80;;;19.40;99.90;;;;;;4214146;28;20476;-66
2022/06/26 04:42:02;;;;;;;13.75;4.22;;;19.80;99.90;;;;;;4212563;28;20036;-64
2022/06/26 04:44:08;;;;;;;6.07;4.35;;;20.20;99.90;;;;;;4213330;28;20036;-61
2022/06/26 04:46:09;;;;;;;7.35;4.03;;;20.60;99.90;;;;;;4213036;28;20496;-63
2022/06/26 04:48:10;;;;;;;6.30;4.35;;;21.10;99.90;;;;;;4213810;28;20036;-64
2022/06/26 04:50:12;;;;;;;5.43;3.90;;;21.70;99.90;;;;;;4212795;28;20757;-62
2022/06/26 04:52:13;;;;;;;6.30;4.30;;;22.30;99.90;;;;;;4199554;28;20114;-64
2022/06/26 04:54:14;;;;;;;7.28;4.28;;;22.90;99.90;;;;;;4205678;28;20048;-67
2022/06/26 04:56:15;;;;;;;6.22;3.95;;;23.40;99.90;;;;;;4213294;28;20093;-68
2022/06/26 04:58:17;;;;;;;7.20;3.33;;;23.90;99.90;;;;;;4212640;28;20086;-66
2022/06/26 05:00:19;;;;;;;6.82;3.40;;;24.20;99.90;;;;;;4212486;28;20089;-63
2022/06/26 05:02:20;;;;;;;4.57;3.38;;;24.30;99.40;;;;;;4198251;28;20101;-62
2022/06/26 05:04:21;;;;;;;11.32;4.22;;;24.20;99.20;;;;;;4195728;28;20033;-67
2022/06/26 05:06:23;;;;;;;7.05;3.70;;;24.00;99.00;;;;;;4203315;28;20032;-63
2022/06/26 05:08:24;;;;;;;9.60;4.10;;;23.90;99.00;;;;;;4205188;28;20036;-69
2022/06/26 05:10:25;;;;;;;8.60;4.68;;;23.50;99.10;;;;;;4196721;28;20395;-63
2022/06/26 05:12:27;;;;;;;9.70;4.57;;;23.40;99.40;;;;;;4195708;28;20045;-65
2022/06/26 05:14:28;;;;;;;5.68;3.30;;;23.40;99.40;;;;;;4196703;28;20420;-66
2022/06/26 05:16:30;;;;;;;12.02;4.25;;;23.20;99.50;;;;;;4200351;28;20534;-63
2022/06/26 05:18:31;;;;;;;7.45;4.00;;;23.10;99.80;;;;;;4196724;28;20045;-67
2022/06/26 05:20:32;;;;;;;14.70;5.10;;;23.00;99.90;;;;;;4195434;28;20054;-64
2022/06/26 05:22:33;;;;;;;14.55;5.35;;;22.90;99.90;;;;;;4213223;28;20085;-69
2022/06/26 05:24:35;;;;;;;13.20;7.53;;;22.60;99.90;;;;;;4195245;28;20438;-62
2022/06/26 05:26:36;;;;;;;14.90;8.23;;;22.20;99.90;;;;;;4197270;28;20382;-62
2022/06/26 05:28:37;;;;;;;24.08;8.35;;;22.00;99.90;;;;;;4195651;28;20090;-62
2022/06/26 05:30:38;;;;;;;17.67;6.78;;;21.90;99.90;;;;;;4195924;28;20062;-67
2022/06/26 05:32:40;;;;;;;19.42;7.60;;;21.90;99.90;;;;;;4182116;28;20184;-62
2022/06/26 05:34:41;;;;;;;18.15;6.80;;;22.10;99.90;;;;;;4195483;28;20415;-62
2022/06/26 05:36:42;;;;;;;26.63;7.28;;;22.30;99.90;;;;;;4199313;28;20040;-62
2022/06/26 05:38:43;;;;;;;17.00;7.88;;;22.50;99.90;;;;;;4210306;28;20028;-65
2022/06/26 05:40:44;;;;;;;16.95;8.05;;;22.30;99.90;;;;;;4196042;28;20045;-64
2022/06/26 05:42:45;;;;;;;20.15;8.10;;;22.10;99.90;;;;;;4195091;28;20062;-62
2022/06/26 05:44:46;;;;;;;18.60;6.57;;;21.90;99.90;;;;;;4196291;28;20109;-61
2022/06/26 05:46:48;;;;;;;22.45;6.15;;;21.90;99.90;;;;;;4203629;28;20093;-65
2022/06/26 05:48:49;;;;;;;9.82;5.55;;;22.10;99.90;;;;;;4212129;28;20085;-64
2022/06/26 05:50:51;;;;;;;13.00;5.18;;;22.30;99.90;;;;;;4210516;28;20093;-61
2022/06/26 05:52:53;;;;;;;11.88;4.82;;;22.50;99.90;;;;;;4210580;28;20086;-62
2022/06/26 05:54:54;;;;;;;6.15;4.43;;;22.70;99.90;;;;;;4195716;28;20040;-61
2022/06/26 05:56:55;;;;;;;8.27;3.92;;;22.80;99.90;;;;;;4207174;28;20043;-62
2022/06/26 05:58:56;;;;;;;8.25;3.90;;;23.00;99.90;;;;;;4210704;28;20089;-61
2022/06/26 06:00:57;;;;;;;14.90;4.90;;;23.20;99.70;;;;;;4203217;28;20443;-64
2022/06/26 06:02:59;;;;;;;7.53;3.88;;;23.40;99.30;;;;;;4202394;28;20451;-62
2022/06/26 06:05:00;;;;;;;16.65;4.75;;;23.60;99.00;;;;;;4210915;28;20041;-62
2022/06/26 06:07:01;;;;;;;23.60;5.57;;;24.00;98.40;;;;;;4210983;28;20441;-62
2022/06/26 06:09:02;;;;;;;11.85;4.47;;;24.10;97.70;;;;;;4203409;28;20437;-66
2022/06/26 06:11:04;;;;;;;13.18;4.85;;;24.30;97.10;;;;;;4210990;28;20048;-62
2022/06/26 06:13:05;;;;;;;11.73;5.00;;;24.90;96.40;;;;;;4196662;28;20037;-64
2022/06/26 06:15:07;;;;;;;20.92;6.63;;;25.30;95.70;;;;;;4194717;28;20055;-62
2022/06/26 06:19:27;;;;;;;22.80;4.95;;;25.10;95.00;;;;;;4199925;28;20648;-62
2022/06/26 06:21:29;;;;;;;19.98;5.28;;;25.00;94.80;;;;;;4193611;28;20024;-62
2022/06/26 06:23:30;;;;;;;15.15;3.75;;;24.80;94.60;;;;;;4203516;28;20039;-67
2022/06/26 06:25:32;;;;;;;15.45;3.72;;;24.90;94.40;;;;;;4209884;28;20081;-61
2022/06/26 06:27:34;;;;;;;8.95;3.70;;;24.90;94.10;;;;;;4208755;28;20442;-64
2022/06/26 06:29:35;;;;;;;18.80;8.02;;;24.70;94.00;;;;;;4209738;28;20526;-64
2022/06/26 06:31:36;;;;;;;13.98;4.07;;;24.40;94.50;;;;;;4200022;28;20033;-63
2022/06/26 06:33:37;;;;;;;12.77;4.82;;;24.10;95.00;;;;;;4194211;28;20436;-64
2022/06/26 06:35:40;;;;;;;10.10;4.43;;;23.90;95.40;;;;;;4199755;28;20040;-63
2022/06/26 06:37:42;;;;;;;12.50;3.72;;;23.50;95.80;;;;;;4186487;28;20044;-62
2022/06/26 06:39:43;;;;;;;15.00;4.43;;;23.40;96.30;;;;;;4203309;28;20051;-63
2022/06/26 06:41:44;;;;;;;14.27;5.00;;;23.40;96.30;;;;;;4201337;28;20033;-63
2022/06/26 06:43:46;;;;;;;11.40;4.82;;;23.50;96.20;;;;;;4195393;28;20044;-64
2022/06/26 06:45:47;;;;;;;9.95;4.55;;;23.80;95.90;;;;;;4211447;28;20028;-62
2022/06/26 06:47:48;;;;;;;10.95;4.45;;;23.70;95.70;;;;;;4210524;28;20044;-62
2022/06/26 06:49:49;;;;;;;10.82;3.63;;;23.50;95.80;;;;;;4211945;28;20093;-63
2022/06/26 06:51:51;;;;;;;14.32;4.55;;;23.50;96.00;;;;;;4209057;28;20069;-66
2022/06/26 06:53:52;;;;;;;9.45;3.83;;;23.40;96.00;;;;;;4211815;28;20024;-63
2022/06/26 06:55:53;;;;;;;12.80;4.30;;;23.30;96.30;;;;;;4203037;28;20032;-64
2022/06/26 06:57:54;;;;;;;8.82;3.40;;;23.20;96.40;;;;;;4194604;28;20082;-63
2022/06/26 06:59:55;;;;;;;3.42;2.78;;;23.10;96.50;;;;;;4203403;28;20502;-62
2022/06/26 07:01:56;;;;;;;5.03;2.80;;;23.20;96.40;;;;;;4211234;28;20101;-64
2022/06/26 07:03:57;;;;;;;5.38;3.05;;;23.10;96.30;;;;;;4198241;28;20447;-63
2022/06/26 07:05:58;;;;;;;6.35;2.92;;;23.00;96.40;;;;;;4194517;28;20032;-65
2022/06/26 07:08:00;;;;;;;4.40;2.85;;;22.90;96.70;;;;;;4193948;28;21346;-65
2022/06/26 07:10:03;;;;;;;9.25;2.67;;;23.00;96.70;;;;;;4193861;28;20489;-66
2022/06/26 07:12:04;;;;;;;3.65;2.80;;;23.10;96.80;;;;;;4194430;28;20028;-64
2022/06/26 07:14:06;;;;;;;3.70;2.38;;;23.30;96.40;;;;;;4192907;28;20836;-63
2022/06/26 07:16:07;;;;;;;6.07;2.22;;;23.30;95.90;;;;;;4204532;28;20025;-63
2022/06/26 07:18:08;;;;;;;5.70;2.83;;;23.20;95.70;;;;;;4192050;28;20400;-63
2022/06/26 07:20:10;;;;;;;2.05;1.85;;;23.20;95.60;;;;;;4194044;28;20457;-64
2022/06/26 07:22:11;;;;;;;5.60;2.20;;;23.20;95.70;;;;;;4192597;28;20551;-66
2022/06/26 07:24:13;;;;;;;3.38;2.03;;;23.20;95.70;;;;;;4194105;28;20455;-64
2022/06/26 07:26:14;;;;;;;6.07;2.50;;;23.20;95.60;;;;;;4193055;28;20032;-64
2022/06/26 07:28:16;;;;;;;5.55;2.65;;;23.20;95.60;;;;;;4208997;28;20538;-67
2022/06/26 07:30:17;;;;;;;5.43;2.92;;;23.10;95.50;;;;;;4208278;28;20152;-64
2022/06/26 07:32:20;;;;;;;3.22;2.40;;;23.20;95.60;;;;;;4199997;28;20036;-65
2022/06/26 07:34:23;;;;;;;4.20;2.50;;;23.30;95.40;;;;;;4193292;28;20033;-65
2022/06/26 07:36:24;;;;;;;10.88;3.40;;;23.40;95.20;;;;;;4194475;28;20032;-61
2022/06/26 07:38:25;;;;;;;3.78;2.17;;;23.40;95.10;;;;;;4200541;28;20040;-64
2022/06/26 07:40:28;;;;;;;4.70;2.72;;;23.50;95.00;;;;;;4210582;28;20032;-65
2022/06/26 07:42:29;;;;;;;5.22;2.22;;;23.60;94.70;;;;;;4210178;28;20021;-63
2022/06/26 07:44:31;;;;;;;3.80;2.03;;;23.70;94.40;;;;;;4210275;28;20369;-64
2022/06/26 07:46:34;;;;;;;5.53;2.30;;;23.70;94.40;;;;;;4209584;28;20027;-63
2022/06/26 07:48:35;;;;;;;3.38;2.60;;;23.70;94.40;;;;;;4193330;28;20024;-66
2022/06/26 07:50:36;;;;;;;2.92;2.45;;;23.70;94.30;;;;;;4196108;28;20098;-64
2022/06/26 07:52:37;;;;;;;4.15;2.78;;;23.80;94.10;;;;;;4209672;28;20478;-66
2022/06/26 07:54:39;;;;;;;7.10;2.65;;;23.80;93.90;;;;;;4211013;28;20082;-64
2022/06/26 07:56:40;;;;;;;2.53;1.90;;;23.60;93.80;;;;;;4209151;28;20538;-68
2022/06/26 07:58:41;;;;;;;3.10;2.20;;;23.60;93.80;;;;;;4211403;28;20128;-63
2022/06/26 08:00:43;;;;;;;3.38;1.98;;;23.70;93.50;;;;;;4208147;28;20089;-63
2022/06/26 08:02:44;;;;;;;5.00;2.42;;;23.90;93.30;;;;;;4194080;28;20048;-66
2022/06/26 08:04:45;;;;;;;2.20;2.00;;;23.90;93.30;;;;;;4194431;28;20044;-66
2022/06/26 08:06:46;;;;;;;4.95;1.98;;;23.90;92.80;;;;;;4210924;28;20028;-66
2022/06/26 08:08:48;;;;;;;2.47;2.15;;;23.90;92.80;;;;;;4194420;28;20097;-65
2022/06/26 08:10:49;;;;;;;5.45;2.40;;;23.90;92.70;;;;;;4193725;28;20036;-69
2022/06/26 08:12:50;;;;;;;3.17;2.10;;;23.90;92.60;;;;;;4193343;28;20040;-67
2022/06/26 08:14:51;;;;;;;4.47;2.50;;;23.90;92.50;;;;;;4193778;28;20049;-64
2022/06/26 08:16:52;;;;;;;6.45;2.30;;;24.00;92.50;;;;;;4202948;28;20861;-65
2022/06/26 08:18:53;;;;;;;4.95;2.00;;;24.00;92.30;;;;;;4208163;28;20109;-64
2022/06/26 08:20:54;;;;;;;5.28;1.80;;;24.20;92.00;;;;;;4206735;28;20032;-66
2022/06/26 08:22:56;;;;;;;3.55;1.98;;;24.20;91.80;;;;;;4186491;28;20040;-63
2022/06/26 08:24:57;;;;;;;5.95;2.20;;;24.20;91.30;;;;;;4205636;28;20093;-65
2022/06/26 08:26:59;;;;;;;3.90;2.08;;;24.30;90.80;;;;;;4209535;28;20529;-66
2022/06/26 08:29:00;;;;;;;2.97;2.33;;;24.30;90.60;;;;;;4204759;28;20086;-66
2022/06/26 08:31:02;;;;;;;6.00;2.30;;;24.60;90.40;;;;;;4192922;28;20113;-64
2022/06/26 08:33:03;;;;;;;2.20;2.00;;;24.90;90.20;;;;;;4194102;28;20043;-65
2022/06/26 08:35:06;;;;;;;5.35;2.10;;;25.00;89.80;;;;;;4192457;28;20033;-65
2022/06/26 08:37:07;;;;;;;2.53;2.33;;;25.00;89.70;;;;;;4193728;28;20082;-68
2022/06/26 08:39:08;;;;;;;2.80;2.10;;;25.00;90.00;;;;;;4192557;28;20060;-64
2022/06/26 08:41:12;;;;;;;2.20;1.73;;;24.80;90.20;;;;;;4193482;28;20435;-67
2022/06/26 08:43:17;;;;;;;5.20;1.65;;;24.80;88.90;;;;;;4193229;28;20024;-64
2022/06/26 08:45:20;;;;;;;5.47;1.80;;;24.70;89.30;;;;;;4203575;28;20024;-69
2022/06/26 08:47:24;;;;;;;1.77;1.60;;;24.70;88.80;;;;;;4210579;28;20410;-63
2022/06/26 08:49:26;;;;;;;3.53;1.77;;;24.70;88.00;;;;;;4208477;28;20052;-68
2022/06/26 08:51:27;;;;;;;4.90;2.33;;;24.70;88.20;;;;;;4211921;28;20028;-65
2022/06/26 08:53:29;;;;;;;2.97;2.13;;;24.80;88.80;;;;;;4212285;28;20052;-64
2022/06/26 08:55:30;;;;;;;1.98;1.88;;;24.90;88.80;;;;;;4213499;28;20109;-65
2022/06/26 08:57:33;;;;;;;6.53;2.00;;;25.00;88.90;;;;;;4212394;28;20073;-67
2022/06/26 08:59:34;;;;;;;2.42;1.92;;;25.00;89.30;;;;;;4204247;28;20542;-65
2022/06/26 09:01:37;;;;;;;4.07;2.10;;;25.00;89.40;;;;;;4195671;28;20095;-66
2022/06/26 09:03:38;;;;;;;4.13;2.38;;;25.10;89.60;;;;;;4196911;28;20045;-69
2022/06/26 09:05:40;;;;;;;3.97;2.13;;;25.20;90.00;;;;;;4195705;28;21154;-64
2022/06/26 09:07:46;;;;;;;4.03;2.45;;;25.10;90.00;;;;;;4196779;28;20078;-63
2022/06/26 09:09:47;;;;;;;4.70;2.80;;;25.00;90.40;;;;;;4195531;28;20052;-62
2022/06/26 09:11:50;;;;;;;6.30;2.30;;;24.90;90.60;;;;;;4196932;28;20037;-61
2022/06/26 09:13:53;;;;;;;4.65;2.63;;;24.90;90.70;;;;;;4212118;28;20488;-65
2022/06/26 09:15:54;;;;;;;8.32;2.47;;;25.00;90.80;;;;;;4211637;28;20028;-66
2022/06/26 09:18:04;;;;;;;2.83;2.35;;;25.10;90.70;;;;;;4207281;28;20097;-66
2022/06/26 09:20:08;;;;;;;5.38;2.67;;;25.10;90.70;;;;;;4196185;28;20090;-65
2022/06/26 09:22:15;;;;;;;5.38;2.33;;;25.10;90.80;;;;;;4195716;28;20078;-68
2022/06/26 09:24:19;;;;;;;5.03;2.08;;;25.10;90.90;;;;;;4194355;28;20081;-67
2022/06/26 09:26:20;;;;;;;2.15;1.95;;;25.10;90.90;;;;;;4194731;28;20021;-64
2022/06/26 09:28:22;;;;;;;5.57;2.72;;;25.00;91.00;;;;;;4195328;28;20546;-67
2022/06/26 09:30:23;;;;;;;5.25;2.30;;;24.90;91.20;;;;;;4195745;28;20108;-68
2022/06/26 09:32:27;;;;;;;2.28;1.98;;;24.90;91.20;;;;;;4196093;28;20036;-63
2022/06/26 09:34:28;;;;;;;4.30;2.80;;;25.10;91.20;;;;;;4197378;28;20024;-64
2022/06/26 09:36:30;;;;;;;5.50;2.70;;;25.10;91.10;;;;;;4209257;28;20032;-62
2022/06/26 09:38:33;;;;;;;5.82;2.25;;;25.20;91.10;;;;;;4212870;28;20093;-65
2022/06/26 09:40:34;;;;;;;4.82;2.13;;;25.30;91.10;;;;;;4211734;28;20032;-65
2022/06/26 09:42:35;;;;;;;7.80;2.30;;;25.40;91.00;;;;;;4212559;28;20472;-64
2022/06/26 09:44:46;;;;;;;2.90;2.30;;;25.60;90.90;;;;;;4211566;28;21207;-66
2022/06/26 09:46:48;;;;;;;14.88;3.53;;;25.80;90.90;;;;;;4213081;28;20024;-65
2022/06/26 09:48:50;;;;;;;17.98;6.28;;;25.90;90.80;;;;;;4211549;28;20101;-64
2022/06/26 09:50:52;;;;;;;3.60;2.10;;;25.80;90.50;;;;;;4210883;28;20049;-62
2022/06/26 09:52:54;;;;;;;9.18;4.45;;;25.80;90.50;;;;;;4211346;28;20036;-64
2022/06/26 09:54:57;;;;;;;5.78;2.30;;;26.00;90.50;;;;;;4212413;28;20077;-65
2022/06/26 09:56:58;;;;;;;5.90;2.35;;;26.10;90.30;;;;;;4211023;28;20028;-67
2022/06/26 09:58:59;;;;;;;3.28;2.25;;;26.30;90.30;;;;;;4211997;28;20051;-65
2022/06/26 10:08:06;;;;;;;2.88;2.60;;;26.20;90.60;;;;;;4203638;28;20094;-64
2022/06/26 10:10:08;;;;;;;4.55;2.45;;;26.20;90.60;;;;;;4196142;28;20421;-63
2022/06/26 10:12:12;;;;;;;3.50;2.42;;;26.20;90.60;;;;;;4200285;28;20040;-66
2022/06/26 10:14:22;;;;;;;7.63;2.45;;;26.30;90.60;;;;;;4206414;28;20013;-63
2022/06/26 10:16:53;;;;;;;6.47;3.17;;;26.50;90.50;;;;;;4195567;28;20125;-62
2022/06/26 10:19:13;;;;;;;12.98;2.90;;;26.90;90.30;;;;;;4193282;28;20052;-63
2022/06/26 10:21:14;;;;;;;3.17;2.80;;;27.00;90.00;;;;;;4196068;28;20021;-63
2022/06/26 10:23:32;;;;;;;5.40;2.17;;;27.10;90.00;;;;;;4194994;28;20032;-64
2022/06/26 10:25:33;;;;;;;2.95;2.13;;;27.10;89.50;;;;;;4195898;28;20358;-63
2022/06/26 10:27:37;;;;;;;3.83;2.58;;;27.30;89.50;;;;;;4194197;28;20028;-66
2022/06/26 10:29:40;;;;;;;6.53;2.40;;;27.50;89.30;;;;;;4196049;28;21087;-65
2022/06/26 10:31:44;;;;;;;3.90;2.40;;;27.50;89.00;;;;;;4194489;28;20166;-63
2022/06/26 10:33:49;;;;;;;4.75;2.25;;;27.60;89.60;;;;;;4195192;28;20029;-65
2022/06/26 10:35:54;;;;;;;4.40;2.78;;;27.90;88.80;;;;;;4177565;28;20033;-65
2022/06/26 10:37:57;;;;;;;6.28;2.28;;;28.10;88.70;;;;;;4193768;28;20424;-62
2022/06/26 10:40:00;;;;;;;4.63;2.75;;;28.30;88.00;;;;;;4194362;28;20101;-62
2022/06/26 10:44:34;;;;;;;36.05;14.43;;;28.60;88.00;;;;;;4194472;28;20370;-65
2022/06/26 10:46:45;;;;;;;11.75;4.03;;;28.80;86.80;;;;;;4194917;28;20044;-69
2022/06/26 10:48:52;;;;;;;70.65;19.25;;;28.90;86.40;;;;;;4177391;28;20538;-65